createdAt,value
2022-08-02T14:15:48.701Z,1.03
2022-08-02T14:20:53.608Z,0.65
2022-08-02T14:25:58.920Z,0.85
2022-08-02T14:31:05.070Z,0.68
2022-08-02T14:36:09.717Z,0.90
2022-08-02T14:41:14.007Z,1.33
2022-08-02T14:46:19.953Z,0.50
2022-08-02T14:51:24.674Z,1.50
2022-08-02T14:56:29.416Z,0.67
2022-08-02T15:01:35.442Z,1.10
2022-08-02T15:06:39.968Z,0.60
2022-08-02T15:11:47.876Z,1.30
2022-08-02T15:16:58.007Z,0.98
2022-08-02T15:22:03.350Z,0.68
2022-08-02T15:27:13.111Z,1.00
2022-08-02T15:32:19.989Z,0.70
2022-08-02T15:37:25.372Z,1.33
2022-08-02T15:42:30.240Z,0.80
2022-08-02T15:47:36.937Z,0.95
2022-08-02T15:52:41.491Z,1.40
2022-08-02T15:57:46.901Z,0.30
2022-08-02T16:02:52.600Z,0.80
2022-08-02T16:07:58.151Z,0.90
2022-08-02T16:13:16.672Z,0.60
2022-08-02T16:18:22.379Z,1.10
2022-08-02T16:23:59.592Z,1.20
2022-08-02T16:28:51.034Z,1.30
2022-08-02T16:33:57.415Z,0.60
2022-08-02T16:39:02.064Z,0.57
2022-08-02T16:44:06.729Z,0.83
2022-08-02T16:50:04.128Z,0.63
2022-08-02T16:54:38.221Z,1.00
2022-08-02T16:59:45.231Z,0.90
2022-08-02T17:05:04.161Z,0.80
2022-08-02T17:10:10.226Z,1.50
2022-08-02T17:16:17.034Z,0.60
2022-08-02T17:20:40.720Z,1.45
2022-08-02T17:25:52.429Z,1.13
2022-08-02T17:30:57.240Z,1.30
2022-08-02T17:36:03.199Z,2.30
2022-08-02T17:41:07.621Z,1.37
2022-08-02T17:46:19.603Z,1.53
2022-08-02T17:51:32.967Z,1.47
2022-08-02T17:56:52.047Z,1.30
2022-08-02T18:01:58.418Z,1.50
2022-08-02T18:07:11.217Z,1.97
2022-08-02T18:12:21.338Z,1.87
2022-08-02T18:17:26.044Z,1.27
2022-08-02T18:22:35.131Z,1.20
2022-08-02T18:27:41.815Z,2.22
2022-08-02T18:33:55.168Z,2.15
2022-08-02T18:38:16.097Z,2.03
2022-08-02T18:43:25.747Z,2.25
2022-08-02T18:48:33.875Z,1.30
2022-08-02T18:53:43.267Z,1.90
2022-08-02T18:58:47.735Z,2.57
2022-08-02T19:03:52.887Z,2.10
2022-08-02T19:09:11.198Z,2.33
2022-08-02T19:14:27.804Z,2.08
2022-08-02T19:19:33.062Z,2.10
2022-08-02T19:24:39.137Z,1.97
2022-08-02T19:40:41.873Z,2.42
2022-08-02T19:45:51.208Z,2.60
2022-08-02T19:50:59.204Z,3.13
2022-08-02T19:56:07.275Z,3.13
2022-08-02T20:01:16.517Z,2.15
2022-08-02T20:06:29.622Z,2.53
2022-08-02T20:11:36.149Z,1.93
2022-08-02T20:16:42.441Z,2.53
2022-08-02T20:21:54.169Z,3.03
2022-08-02T20:27:16.906Z,3.63
2022-08-02T20:32:26.556Z,3.50
2022-08-02T20:38:00.219Z,2.75
2022-08-02T20:42:57.521Z,2.15
2022-08-02T20:48:01.899Z,2.43
2022-08-02T20:53:08.154Z,2.30
2022-08-02T20:58:31.056Z,4.55
2022-08-02T21:03:39.769Z,2.43
2022-08-02T21:08:46.069Z,3.78
2022-08-02T21:14:08.308Z,1.85
2022-08-02T21:19:13.744Z,1.92
2022-08-02T21:24:18.153Z,2.38
2022-08-02T21:29:33.220Z,2.78
2022-08-02T21:34:37.858Z,3.30
2022-08-02T21:39:42.355Z,2.30
2022-08-02T21:44:55.580Z,2.60
2022-08-02T21:50:13.518Z,2.20
2022-08-02T21:55:24.005Z,1.43
2022-08-02T22:00:42.598Z,2.43
2022-08-02T22:05:47.449Z,1.58
2022-08-02T22:11:04.526Z,2.40
2022-08-02T22:16:22.850Z,4.53
2022-08-02T22:21:32.389Z,1.50
2022-08-02T22:26:51.029Z,1.40
2022-08-02T22:31:56.693Z,1.60
2022-08-02T22:37:02.000Z,4.53
2022-08-02T22:42:10.365Z,2.35
2022-08-02T22:47:16.071Z,2.92
2022-08-02T22:52:21.039Z,3.67
2022-08-02T22:57:31.074Z,3.50
2022-08-02T22:58:48.175Z,1.73
2022-08-02T22:59:06.041Z,2.58
2022-08-02T23:02:37.650Z,2.88
2022-08-02T23:07:42.902Z,1.92
2022-08-02T23:12:47.341Z,2.03
2022-08-02T23:18:25.190Z,3.67
2022-08-02T23:23:29.903Z,3.03
2022-08-02T23:28:34.609Z,2.45
2022-08-02T23:34:03.778Z,3.97
2022-08-02T23:39:05.600Z,3.13
2022-08-02T23:44:14.869Z,3.13
2022-08-02T23:49:22.820Z,3.42
2022-08-02T23:54:27.360Z,2.35
2022-08-02T23:59:33.049Z,2.95
